Time;durP1;ratioP1;P1;durP2;ratioP2;P2;SDS_P1;SDS_P2;PMS_P1;PMS_P2;Temp;Humidity;BMP_temperature;BMP_pressure;BME280_temperature;BME280_humidity;BME280_pressure;Samples;Min_cycle;Max_cycle;Signal;HPM_P1;HPM_P2
2022/05/25 00:00:44;;;;;;;2.20;2.10;;;;;;;;;;5054987;28;20543;-58
2022/05/25 00:03:11;;;;;;;2.20;2.10;;;;;;;;;;5054836;28;20454;-59
2022/05/25 00:05:38;;;;;;;2.60;2.40;;;;;;;;;;5054720;28;20484;-58
2022/05/25 00:08:09;;;;;;;2.40;2.13;;;;;;;;;;5054898;28;20811;-58
2022/05/25 00:10:36;;;;;;;2.87;2.67;;;;;;;;;;5054820;28;20823;-58
2022/05/25 00:13:04;;;;;;;2.20;2.10;;;;;;;;;;5054681;28;20563;-59
2022/05/25 00:15:31;;;;;;;2.90;2.70;;;;;;;;;;5054447;28;20490;-58
2022/05/25 00:17:58;;;;;;;2.50;2.40;;;;;;;;;;5054392;28;20484;-59
2022/05/25 00:20:24;;;;;;;3.23;2.60;;;;;;;;;;5054469;28;20878;-58
2022/05/25 00:22:52;;;;;;;2.63;2.53;;;;;;;;;;5054637;28;21020;-58
2022/05/25 00:25:21;;;;;;;2.30;2.20;;;;;;;;;;5054387;28;20455;-58
2022/05/25 00:27:48;;;;;;;2.60;2.40;;;;;;;;;;5054355;28;20444;-58
2022/05/25 00:30:17;;;;;;;3.13;2.93;;;;;;;;;;5054320;28;20952;-58
2022/05/25 00:32:44;;;;;;;3.00;2.80;;;;;;;;;;5054161;28;20759;-58
2022/05/25 00:35:12;;;;;;;2.40;2.30;;;;;;;;;;5054082;28;20567;-59
2022/05/25 00:37:40;;;;;;;2.70;2.50;;;;;;;;;;5054267;28;20452;-58
2022/05/25 00:40:07;;;;;;;2.37;2.27;;;;;;;;;;5054175;28;20491;-58
2022/05/25 00:42:36;;;;;;;2.90;2.60;;;;;;;;;;5053887;28;20449;-58
2022/05/25 00:45:03;;;;;;;5.70;2.97;;;;;;;;;;5053945;28;20553;-58
2022/05/25 00:47:32;;;;;;;6.50;2.40;;;;;;;;;;5054402;28;20445;-58
2022/05/25 00:49:59;;;;;;;2.83;2.20;;;;;;;;;;5054008;28;20539;-58
2022/05/25 00:52:27;;;;;;;2.60;2.47;;;;;;;;;;5053925;28;20873;-58
2022/05/25 00:54:56;;;;;;;2.47;2.37;;;;;;;;;;5053746;28;20541;-58
2022/05/25 00:57:24;;;;;;;2.33;2.23;;;;;;;;;;5054040;28;20452;-58
2022/05/25 00:59:55;;;;;;;2.73;2.50;;;;;;;;;;5053535;28;20456;-58
2022/05/25 01:02:22;;;;;;;3.00;2.80;;;;;;;;;;5053605;28;20463;-58
2022/05/25 01:04:50;;;;;;;3.63;3.00;;;;;;;;;;5053700;28;20454;-58
2022/05/25 01:07:24;;;;;;;2.70;2.50;;;;;;;;;;5053620;28;20535;-58
2022/05/25 01:09:58;;;;;;;3.03;2.83;;;;;;;;;;5053585;28;20543;-58
2022/05/25 01:12:31;;;;;;;2.37;2.20;;;;;;;;;;5053681;28;20450;-58
2022/05/25 01:15:06;;;;;;;2.80;2.60;;;;;;;;;;5053424;28;20484;-58
2022/05/25 01:17:38;;;;;;;2.70;2.50;;;;;;;;;;5053537;28;20530;-58
2022/05/25 01:20:20;;;;;;;3.57;3.00;;;;;;;;;;5053396;28;20538;-58
2022/05/25 01:23:11;;;;;;;2.87;2.67;;;;;;;;;;5053246;28;20462;-58
2022/05/25 01:25:44;;;;;;;3.07;2.93;;;;;;;;;;5053406;28;20458;-58
2022/05/25 01:28:15;;;;;;;2.63;2.50;;;;;;;;;;5053266;28;20483;-58
2022/05/25 01:30:45;;;;;;;3.40;3.10;;;;;;;;;;5053451;28;20491;-58
2022/05/25 01:33:15;;;;;;;3.70;3.40;;;;;;;;;;5052580;28;20444;-58
2022/05/25 01:35:48;;;;;;;3.27;3.07;;;;;;;;;;5053177;28;20580;-58
2022/05/25 01:38:18;;;;;;;2.63;2.53;;;;;;;;;;5053210;28;20491;-58
2022/05/25 01:40:49;;;;;;;3.20;2.97;;;;;;;;;;5053227;28;21026;-59
2022/05/25 01:43:17;;;;;;;3.20;3.00;;;;;;;;;;5052904;28;20478;-59
2022/05/25 01:45:48;;;;;;;2.60;2.50;;;;;;;;;;5053231;28;20450;-57
2022/05/25 01:48:16;;;;;;;2.73;2.53;;;;;;;;;;5053107;28;20531;-59
2022/05/25 01:50:47;;;;;;;3.37;3.17;;;;;;;;;;5053219;28;20444;-59
2022/05/25 01:53:16;;;;;;;3.20;2.90;;;;;;;;;;5052976;28;20444;-59
2022/05/25 01:55:47;;;;;;;3.10;2.90;;;;;;;;;;5052767;28;20994;-59
2022/05/25 01:58:17;;;;;;;3.10;2.90;;;;;;;;;;5052886;28;20484;-59
2022/05/25 02:00:46;;;;;;;3.50;3.20;;;;;;;;;;5052853;28;20931;-59
2022/05/25 02:06:08;;;;;;;3.40;3.10;;;;;;;;;;5053123;28;20435;-59
2022/05/25 02:08:40;;;;;;;3.30;3.10;;;;;;;;;;5052750;28;20549;-59
2022/05/25 02:11:12;;;;;;;3.10;2.80;;;;;;;;;;5052892;28;20448;-59
2022/05/25 02:13:51;;;;;;;4.47;3.53;;;;;;;;;;5052826;28;20523;-59
2022/05/25 02:16:22;;;;;;;3.23;2.93;;;;;;;;;;5052626;28;20582;-58
2022/05/25 02:18:57;;;;;;;3.67;3.43;;;;;;;;;;5052664;28;20811;-59
2022/05/25 02:21:29;;;;;;;3.37;3.13;;;;;;;;;;5052888;28;20451;-59
2022/05/25 02:24:00;;;;;;;3.67;3.47;;;;;;;;;;5052620;28;20959;-59
2022/05/25 02:26:29;;;;;;;3.40;3.13;;;;;;;;;;5052671;28;20451;-59
2022/05/25 02:28:59;;;;;;;6.23;2.77;;;;;;;;;;5052573;28;20455;-58
2022/05/25 02:31:28;;;;;;;4.30;2.60;;;;;;;;;;5052508;28;20505;-59
2022/05/25 02:33:58;;;;;;;3.40;3.10;;;;;;;;;;5052655;28;20535;-59
2022/05/25 02:36:26;;;;;;;2.57;2.43;;;;;;;;;;5052561;28;20919;-59
2022/05/25 02:38:53;;;;;;;2.53;2.43;;;;;;;;;;5052566;28;20452;-58
2022/05/25 02:41:27;;;;;;;3.37;3.03;;;;;;;;;;5052462;28;20539;-59
2022/05/25 02:43:54;;;;;;;2.83;2.73;;;;;;;;;;5052238;28;21069;-59
2022/05/25 02:46:21;;;;;;;4.23;3.30;;;;;;;;;;5056150;28;20478;-59
2022/05/25 02:48:48;;;;;;;2.87;2.67;;;;;;;;;;5056434;28;20883;-59
2022/05/25 02:51:17;;;;;;;3.13;2.90;;;;;;;;;;5056387;28;20535;-59
2022/05/25 02:53:44;;;;;;;3.40;3.10;;;;;;;;;;5056116;28;20459;-59
2022/05/25 02:56:11;;;;;;;2.80;2.70;;;;;;;;;;5056004;28;20575;-59
2022/05/25 02:58:38;;;;;;;3.60;3.40;;;;;;;;;;5056185;28;20539;-59
2022/05/25 03:01:06;;;;;;;3.40;2.50;;;;;;;;;;5056100;28;20445;-59
2022/05/25 03:03:33;;;;;;;3.13;3.03;;;;;;;;;;5056105;28;20882;-59
2022/05/25 03:06:00;;;;;;;3.60;3.27;;;;;;;;;;5055949;28;20863;-59
2022/05/25 03:08:28;;;;;;;3.20;3.00;;;;;;;;;;5056059;28;20478;-59
2022/05/25 03:10:55;;;;;;;3.27;2.97;;;;;;;;;;5056512;28;20444;-59
2022/05/25 03:13:22;;;;;;;4.60;3.07;;;;;;;;;;5055849;28;20446;-59
2022/05/25 03:15:49;;;;;;;6.33;3.33;;;;;;;;;;5055830;28;20587;-59
2022/05/25 03:18:16;;;;;;;3.43;3.13;;;;;;;;;;5055764;28;20488;-59
2022/05/25 03:20:44;;;;;;;3.50;3.23;;;;;;;;;;5055630;28;20480;-59
2022/05/25 03:23:12;;;;;;;3.20;3.00;;;;;;;;;;5055496;28;20944;-59
2022/05/25 03:25:40;;;;;;;4.00;3.70;;;;;;;;;;5055521;28;20502;-59
2022/05/25 03:28:07;;;;;;;3.63;3.43;;;;;;;;;;5055672;28;20539;-59
2022/05/25 03:30:34;;;;;;;4.73;3.50;;;;;;;;;;5055485;28;20884;-58
2022/05/25 03:33:01;;;;;;;3.30;3.03;;;;;;;;;;5055421;28;20474;-59
2022/05/25 03:35:28;;;;;;;3.83;2.80;;;;;;;;;;5055298;28;20574;-59
2022/05/25 03:37:55;;;;;;;4.00;3.70;;;;;;;;;;5055217;28;20454;-59
2022/05/25 03:40:22;;;;;;;3.80;3.50;;;;;;;;;;5055143;28;20487;-59
2022/05/25 03:42:51;;;;;;;3.47;3.17;;;;;;;;;;5055134;28;20476;-59
2022/05/25 03:45:18;;;;;;;3.47;3.27;;;;;;;;;;5055522;28;20452;-59
2022/05/25 03:47:46;;;;;;;4.00;3.27;;;;;;;;;;5055196;28;20494;-59
2022/05/25 03:50:13;;;;;;;4.30;3.27;;;;;;;;;;5055004;28;20547;-59
2022/05/25 03:52:40;;;;;;;3.60;3.30;;;;;;;;;;5054950;28;20456;-59
2022/05/25 03:55:08;;;;;;;4.33;3.93;;;;;;;;;;5054564;28;20915;-59
2022/05/25 03:57:35;;;;;;;4.90;3.40;;;;;;;;;;5055085;28;20463;-58
2022/05/25 04:00:04;;;;;;;5.83;3.50;;;;;;;;;;5054938;28;20462;-58
2022/05/25 04:02:31;;;;;;;5.30;3.10;;;;;;;;;;5054753;28;21074;-59
2022/05/25 04:05:08;;;;;;;9.07;4.17;;;;;;;;;;5054674;28;20848;-59
2022/05/25 04:07:35;;;;;;;3.67;3.37;;;;;;;;;;5054877;28;20452;-58
2022/05/25 04:10:03;;;;;;;4.00;3.47;;;;;;;;;;5054791;28;20456;-59
2022/05/25 04:12:30;;;;;;;4.00;3.70;;;;;;;;;;5054754;28;20531;-59
2022/05/25 04:14:57;;;;;;;4.10;3.80;;;;;;;;;;5054571;28;20472;-59
2022/05/25 04:17:26;;;;;;;4.33;3.93;;;;;;;;;;5054427;28;20445;-58
2022/05/25 04:19:53;;;;;;;5.73;3.63;;;;;;;;;;5054585;28;20484;-59
2022/05/25 04:22:19;;;;;;;6.03;4.23;;;;;;;;;;5054543;28;20459;-59
2022/05/25 04:24:46;;;;;;;5.20;4.07;;;;;;;;;;5054766;28;20537;-59
2022/05/25 04:27:14;;;;;;;3.70;3.33;;;;;;;;;;5054478;28;20475;-59
2022/05/25 04:29:41;;;;;;;6.00;3.60;;;;;;;;;;5054327;28;20950;-59
2022/05/25 04:32:08;;;;;;;6.43;3.80;;;;;;;;;;5054135;28;20495;-59
2022/05/25 04:34:37;;;;;;;6.70;4.37;;;;;;;;;;5054301;28;20528;-59
2022/05/25 04:39:45;;;;;;;4.40;4.00;;;;;;;;;;5053793;28;20935;-59
2022/05/25 04:42:12;;;;;;;3.83;3.53;;;;;;;;;;5054079;28;20454;-59
2022/05/25 04:44:39;;;;;;;3.77;3.57;;;;;;;;;;5053713;28;21026;-59
2022/05/25 04:47:08;;;;;;;3.80;3.50;;;;;;;;;;5054379;28;20454;-59
2022/05/25 04:49:36;;;;;;;3.20;3.00;;;;;;;;;;5054010;28;20460;-59
2022/05/25 04:52:04;;;;;;;3.33;3.13;;;;;;;;;;5053744;28;20518;-59
2022/05/25 04:54:31;;;;;;;2.77;2.67;;;;;;;;;;5053801;28;20887;-59
2022/05/25 04:59:43;;;;;;;3.80;3.60;;;;;;;;;;5053615;28;20451;-59
2022/05/25 05:02:10;;;;;;;3.60;3.40;;;;;;;;;;5053602;28;20459;-59
2022/05/25 05:04:38;;;;;;;7.20;3.80;;;;;;;;;;5053677;28;20547;-59
2022/05/25 05:07:05;;;;;;;3.83;3.43;;;;;;;;;;5052665;28;20467;-59
2022/05/25 05:09:33;;;;;;;3.53;3.23;;;;;;;;;;5053377;28;20452;-60
2022/05/25 05:12:00;;;;;;;4.23;3.57;;;;;;;;;;5053556;28;20839;-59
2022/05/25 05:14:27;;;;;;;4.53;3.70;;;;;;;;;;5053540;28;20539;-59
2022/05/25 05:16:55;;;;;;;6.43;3.60;;;;;;;;;;5053409;28;20893;-59
2022/05/25 05:19:23;;;;;;;3.80;3.53;;;;;;;;;;5053362;28;20811;-59
2022/05/25 05:21:51;;;;;;;3.20;3.00;;;;;;;;;;5053207;28;20452;-59
2022/05/25 05:24:18;;;;;;;6.77;6.10;;;;;;;;;;5053027;28;20480;-59
2022/05/25 05:26:46;;;;;;;5.13;4.63;;;;;;;;;;5053385;28;20455;-59
2022/05/25 05:29:12;;;;;;;5.03;4.10;;;;;;;;;;5053287;28;20514;-59
2022/05/25 05:31:40;;;;;;;3.67;3.40;;;;;;;;;;5053128;28;20784;-59
2022/05/25 05:34:07;;;;;;;3.93;3.60;;;;;;;;;;5053078;28;20535;-59
2022/05/25 05:36:36;;;;;;;3.60;3.40;;;;;;;;;;5052916;28;20480;-59
2022/05/25 05:39:06;;;;;;;3.97;3.47;;;;;;;;;;5052823;28;20810;-59
2022/05/25 05:41:34;;;;;;;6.33;3.60;;;;;;;;;;5052954;28;20547;-59
2022/05/25 05:44:01;;;;;;;4.27;3.97;;;;;;;;;;5052870;28;20567;-59
2022/05/25 05:46:29;;;;;;;3.37;3.17;;;;;;;;;;5053035;28;20535;-60
2022/05/25 05:48:56;;;;;;;3.73;3.50;;;;;;;;;;5052578;28;20532;-59
2022/05/25 05:51:23;;;;;;;3.70;3.40;;;;;;;;;;5052656;28;20448;-60
2022/05/25 05:53:51;;;;;;;4.23;3.90;;;;;;;;;;5052847;28;20535;-59
2022/05/25 05:56:19;;;;;;;3.70;3.40;;;;;;;;;;5052772;28;20927;-60
2022/05/25 05:58:46;;;;;;;4.70;4.30;;;;;;;;;;5052822;28;20811;-59
2022/05/25 06:01:13;;;;;;;3.00;2.80;;;;;;;;;;5052605;28;20448;-59
2022/05/25 06:03:40;;;;;;;4.80;3.63;;;;;;;;;;5052674;28;20543;-59
2022/05/25 06:06:07;;;;;;;3.23;3.03;;;;;;;;;;5052765;28;20452;-59
2022/05/25 06:08:34;;;;;;;4.70;3.77;;;;;;;;;;5052878;28;20510;-59
2022/05/25 06:11:01;;;;;;;4.53;4.10;;;;;;;;;;5052596;28;20535;-59
2022/05/25 06:13:30;;;;;;;5.80;3.50;;;;;;;;;;5052515;28;20947;-59
2022/05/25 06:21:29;;;;;;;7.23;4.83;;;;;;;;;;5056847;28;20812;-59
2022/05/25 06:23:57;;;;;;;3.73;3.43;;;;;;;;;;5056713;28;21047;-59
2022/05/25 06:26:27;;;;;;;4.90;4.50;;;;;;;;;;5056437;28;20453;-59
2022/05/25 06:28:55;;;;;;;4.27;3.97;;;;;;;;;;5056392;28;20505;-59
2022/05/25 06:31:22;;;;;;;4.63;4.33;;;;;;;;;;5056285;28;20451;-59
2022/05/25 06:33:49;;;;;;;4.43;4.13;;;;;;;;;;5056390;28;20494;-59
2022/05/25 06:36:17;;;;;;;4.50;4.27;;;;;;;;;;5056407;28;20994;-59
2022/05/25 06:38:44;;;;;;;5.07;4.70;;;;;;;;;;5056354;28;20492;-59
2022/05/25 06:41:12;;;;;;;4.07;3.83;;;;;;;;;;5056052;28;20540;-60
2022/05/25 06:43:39;;;;;;;6.50;4.63;;;;;;;;;;5055879;28;20472;-59
2022/05/25 06:46:07;;;;;;;4.03;3.80;;;;;;;;;;5056251;28;20958;-59
2022/05/25 06:48:34;;;;;;;4.47;4.10;;;;;;;;;;5056145;28;20448;-59
2022/05/25 06:51:09;;;;;;;5.00;3.70;;;;;;;;;;5056095;28;20813;-59
2022/05/25 06:53:36;;;;;;;3.67;3.47;;;;;;;;;;5056042;28;20876;-59
2022/05/25 06:56:03;;;;;;;3.97;3.67;;;;;;;;;;5055682;28;20549;-60
2022/05/25 06:58:30;;;;;;;5.23;4.83;;;;;;;;;;5055943;28;20566;-60
2022/05/25 07:00:57;;;;;;;4.47;4.07;;;;;;;;;;5055861;28;20475;-59
2022/05/25 07:03:25;;;;;;;5.30;4.73;;;;;;;;;;5055701;28;20970;-59
2022/05/25 07:05:52;;;;;;;7.43;5.87;;;;;;;;;;5055552;28;20462;-59
2022/05/25 07:08:19;;;;;;;4.00;3.70;;;;;;;;;;5055490;28;20538;-59
2022/05/25 07:10:46;;;;;;;4.10;3.80;;;;;;;;;;5055587;28;20484;-59
2022/05/25 07:13:14;;;;;;;3.77;3.17;;;;;;;;;;5055666;28;20459;-59
2022/05/25 07:15:41;;;;;;;2.90;2.70;;;;;;;;;;5055585;28;20539;-59
2022/05/25 07:18:08;;;;;;;4.10;3.80;;;;;;;;;;5055602;28;20502;-59
2022/05/25 07:20:36;;;;;;;5.70;3.23;;;;;;;;;;5047858;28;20452;-60
2022/05/25 07:23:04;;;;;;;2.97;2.77;;;;;;;;;;5047719;28;20494;-59
2022/05/25 07:25:31;;;;;;;3.63;3.33;;;;;;;;;;5049760;28;20455;-59
2022/05/25 07:27:58;;;;;;;3.43;2.87;;;;;;;;;;5054964;28;20532;-59
2022/05/25 07:30:25;;;;;;;3.30;3.10;;;;;;;;;;5046700;28;20540;-58
2022/05/25 07:32:52;;;;;;;4.23;2.83;;;;;;;;;;5050086;28;20457;-61
2022/05/25 07:35:19;;;;;;;4.10;3.40;;;;;;;;;;5064566;28;20466;-61
2022/05/25 07:37:50;;;;;;;3.30;3.10;;;;;;;;;;5054861;28;20486;-60
2022/05/25 07:40:21;;;;;;;4.43;3.27;;;;;;;;;;5039670;28;20457;-59
2022/05/25 07:42:50;;;;;;;3.33;3.03;;;;;;;;;;5056856;28;20564;-59
2022/05/25 07:45:17;;;;;;;3.40;3.10;;;;;;;;;;5050922;28;20456;-59
2022/05/25 07:47:44;;;;;;;3.03;2.83;;;;;;;;;;5054085;28;20547;-57
2022/05/25 07:50:11;;;;;;;4.17;2.90;;;;;;;;;;5054558;28;20457;-59
2022/05/25 07:52:40;;;;;;;2.60;2.50;;;;;;;;;;5055599;28;20475;-60
2022/05/25 07:55:11;;;;;;;6.43;3.20;;;;;;;;;;5054926;28;20543;-60
2022/05/25 07:57:38;;;;;;;3.10;2.90;;;;;;;;;;5054739;28;20566;-59
2022/05/25 08:00:06;;;;;;;3.00;2.80;;;;;;;;;;5054652;28;20995;-59
2022/05/25 08:08:07;;;;;;;2.40;2.30;;;;;;;;;;5065607;28;20918;-62
2022/05/25 08:10:35;;;;;;;2.20;2.00;;;;;;;;;;5054526;28;20448;-61
2022/05/25 08:13:03;;;;;;;2.27;2.17;;;;;;;;;;5047216;28;20475;-61
2022/05/25 08:15:31;;;;;;;2.10;2.00;;;;;;;;;;5034742;28;20532;-59
2022/05/25 08:17:58;;;;;;;5.73;2.17;;;;;;;;;;5059106;28;20484;-62
2022/05/25 08:20:25;;;;;;;3.63;3.33;;;;;;;;;;5053707;28;20859;-67
2022/05/25 08:22:52;;;;;;;2.60;2.40;;;;;;;;;;5053385;28;20452;-64
2022/05/25 08:25:20;;;;;;;2.90;2.70;;;;;;;;;;5038425;28;20461;-59
2022/05/25 08:27:48;;;;;;;4.00;3.00;;;;;;;;;;5060076;28;21049;-59
2022/05/25 08:30:16;;;;;;;3.17;2.60;;;;;;;;;;5059009;28;20448;-67
2022/05/25 08:32:43;;;;;;;4.37;2.20;;;;;;;;;;5040522;28;20452;-68
2022/05/25 08:35:11;;;;;;;3.20;2.67;;;;;;;;;;5058850;28;20531;-65
2022/05/25 08:37:38;;;;;;;3.20;2.90;;;;;;;;;;5056849;28;20486;-62
2022/05/25 08:40:06;;;;;;;4.83;3.03;;;;;;;;;;5057445;28;20455;-62
2022/05/25 08:42:35;;;;;;;4.60;2.97;;;;;;;;;;5053197;28;20536;-62
2022/05/25 08:45:04;;;;;;;3.73;3.20;;;;;;;;;;5056937;28;20547;-61
2022/05/25 08:47:31;;;;;;;2.83;2.70;;;;;;;;;;5034858;28;20870;-62
2022/05/25 08:49:58;;;;;;;3.43;3.20;;;;;;;;;;5045686;28;20452;-62
2022/05/25 08:52:31;;;;;;;3.90;3.60;;;;;;;;;;5051705;28;20986;-62
2022/05/25 08:54:59;;;;;;;6.20;3.33;;;;;;;;;;5052132;28;20655;-62
2022/05/25 08:57:28;;;;;;;3.57;3.37;;;;;;;;;;5051582;28;20842;-62
2022/05/25 08:59:57;;;;;;;3.10;2.90;;;;;;;;;;5051773;28;20452;-62
2022/05/25 09:02:29;;;;;;;3.57;3.33;;;;;;;;;;5051503;28;20531;-62
2022/05/25 09:05:00;;;;;;;5.20;3.60;;;;;;;;;;5051672;28;20548;-62
2022/05/25 09:07:31;;;;;;;2.57;2.43;;;;;;;;;;5052968;28;20781;-62
2022/05/25 09:09:58;;;;;;;3.67;3.00;;;;;;;;;;5053507;28;20448;-62
2022/05/25 09:12:29;;;;;;;5.37;2.83;;;;;;;;;;5053398;28;20795;-62
2022/05/25 09:14:59;;;;;;;3.10;2.80;;;;;;;;;;5053234;28;20940;-62
2022/05/25 09:17:31;;;;;;;4.13;2.03;;;;;;;;;;5053190;28;20571;-62
2022/05/25 09:19:59;;;;;;;2.33;2.13;;;;;;;;;;5053230;28;20491;-62
2022/05/25 09:22:26;;;;;;;2.20;2.10;;;;;;;;;;5053344;28;20445;-62
2022/05/25 09:24:55;;;;;;;3.63;2.70;;;;;;;;;;5052997;28;20483;-62
2022/05/25 09:27:37;;;;;;;1.90;1.77;;;;;;;;;;5053190;28;20503;-62
2022/05/25 09:30:05;;;;;;;6.20;2.33;;;;;;;;;;5053076;28;20908;-62
2022/05/25 09:32:37;;;;;;;1.70;1.60;;;;;;;;;;5053189;28;20451;-62
2022/05/25 09:35:07;;;;;;;1.43;1.33;;;;;;;;;;5052962;28;20445;-62
2022/05/25 09:37:36;;;;;;;4.03;2.00;;;;;;;;;;5052890;28;20488;-62
2022/05/25 09:40:04;;;;;;;1.93;1.60;;;;;;;;;;5052933;28;20547;-62
2022/05/25 09:42:34;;;;;;;2.23;1.70;;;;;;;;;;5052666;28;20448;-62
2022/05/25 09:45:02;;;;;;;1.77;1.60;;;;;;;;;;5052760;28;20447;-62
2022/05/25 09:47:37;;;;;;;2.47;1.90;;;;;;;;;;5052917;28;20452;-62
2022/05/25 09:50:06;;;;;;;3.77;1.87;;;;;;;;;;5053038;28;20460;-62
2022/05/25 09:52:36;;;;;;;2.37;2.20;;;;;;;;;;5052645;28;20531;-62
2022/05/25 09:55:06;;;;;;;3.33;3.00;;;;;;;;;;5052138;28;20808;-62
2022/05/25 09:57:34;;;;;;;3.17;2.17;;;;;;;;;;5052723;28;20491;-62
2022/05/25 10:00:02;;;;;;;2.53;2.33;;;;;;;;;;5052788;28;20820;-62
2022/05/25 10:02:32;;;;;;;3.63;2.10;;;;;;;;;;5052720;28;20480;-62
2022/05/25 10:05:11;;;;;;;2.63;1.87;;;;;;;;;;5052488;28;20484;-62
2022/05/25 10:07:39;;;;;;;2.90;1.63;;;;;;;;;;5052489;28;20452;-62
2022/05/25 10:10:08;;;;;;;1.60;1.50;;;;;;;;;;5052833;28;20544;-62
2022/05/25 10:12:42;;;;;;;1.70;1.60;;;;;;;;;;5052640;28;20507;-62
2022/05/25 10:15:10;;;;;;;1.20;1.10;;;;;;;;;;5052664;28;20545;-62
2022/05/25 10:17:38;;;;;;;2.70;1.33;;;;;;;;;;5052555;28;21015;-62
2022/05/25 10:20:19;;;;;;;3.00;1.33;;;;;;;;;;5052398;28;20502;-62
2022/05/25 10:22:50;;;;;;;1.00;1.00;;;;;;;;;;5052668;28;20459;-62
2022/05/25 10:25:23;;;;;;;2.87;1.20;;;;;;;;;;5052566;28;20453;-62
2022/05/25 10:27:51;;;;;;;1.20;1.10;;;;;;;;;;5052449;28;20547;-62
2022/05/25 10:39:17;;;;;;;3.10;2.30;;;;;;;;;;4952172;29;20975;-62
2022/05/25 10:41:45;;;;;;;1.57;1.47;;;;;;;;;;5028701;28;20452;-62
2022/05/25 10:44:17;;;;;;;4.53;4.13;;;;;;;;;;5052211;28;20475;-62
2022/05/25 10:46:51;;;;;;;1.33;1.23;;;;;;;;;;5052209;28;20448;-62
2022/05/25 10:49:21;;;;;;;3.53;1.10;;;;;;;;;;5052356;28;20448;-62
2022/05/25 10:51:50;;;;;;;1.47;1.07;;;;;;;;;;5052279;28;20449;-62
2022/05/25 10:57:19;;;;;;;3.30;1.10;;;;;;;;;;5052367;28;21013;-62
2022/05/25 10:59:50;;;;;;;1.30;1.13;;;;;;;;;;5052057;28;20570;-62
2022/05/25 11:02:23;;;;;;;2.50;1.20;;;;;;;;;;5052251;28;20459;-62
2022/05/25 11:05:00;;;;;;;0.90;0.90;;;;;;;;;;5052274;28;20448;-62
2022/05/25 11:07:31;;;;;;;1.43;1.30;;;;;;;;;;5055809;28;20542;-62
2022/05/25 11:10:14;;;;;;;2.27;1.50;;;;;;;;;;5055626;28;20452;-62
2022/05/25 11:12:44;;;;;;;4.23;1.60;;;;;;;;;;5055988;28;20484;-62
2022/05/25 11:15:18;;;;;;;1.43;1.33;;;;;;;;;;5055758;28;20535;-62
2022/05/25 11:17:52;;;;;;;1.87;1.07;;;;;;;;;;5055596;28;20486;-62
2022/05/25 11:20:24;;;;;;;1.40;1.20;;;;;;;;;;5055672;28;20448;-62
2022/05/25 11:23:00;;;;;;;1.50;1.40;;;;;;;;;;5055738;28;20440;-62
2022/05/25 11:25:35;;;;;;;1.57;1.20;;;;;;;;;;5055489;28;20535;-62
2022/05/25 11:28:26;;;;;;;1.70;1.00;;;;;;;;;;5055364;28;20555;-62
2022/05/25 11:30:59;;;;;;;1.40;1.20;;;;;;;;;;5045239;28;20452;-63
2022/05/25 11:33:36;;;;;;;2.97;1.20;;;;;;;;;;5055451;28;20475;-63
2022/05/25 11:36:07;;;;;;;1.40;1.23;;;;;;;;;;5055407;28;20887;-63
2022/05/25 11:38:42;;;;;;;2.30;1.53;;;;;;;;;;5055282;28;21070;-63
2022/05/25 11:41:17;;;;;;;1.33;1.17;;;;;;;;;;5055094;28;20879;-62
2022/05/25 11:44:01;;;;;;;3.37;1.20;;;;;;;;;;5054692;28;20507;-62
2022/05/25 11:46:35;;;;;;;1.00;0.90;;;;;;;;;;5055165;28;20474;-63
2022/05/25 11:49:11;;;;;;;1.20;1.10;;;;;;;;;;5055194;28;20451;-62
2022/05/25 11:51:43;;;;;;;1.63;0.90;;;;;;;;;;5054831;28;20780;-62
2022/05/25 11:54:16;;;;;;;2.00;0.90;;;;;;;;;;5055078;28;20440;-62
2022/05/25 11:56:49;;;;;;;1.03;0.90;;;;;;;;;;5055003;28;20609;-62
2022/05/25 11:59:29;;;;;;;1.43;1.10;;;;;;;;;;5054802;28;20483;-62
2022/05/25 12:02:00;;;;;;;1.90;1.10;;;;;;;;;;5054573;28;20551;-62
2022/05/25 12:04:32;;;;;;;1.90;1.00;;;;;;;;;;5055081;28;20452;-62
2022/05/25 12:07:03;;;;;;;2.43;1.43;;;;;;;;;;5054442;28;20484;-62
2022/05/25 12:09:38;;;;;;;1.90;1.20;;;;;;;;;;5054693;28;20498;-62
2022/05/25 12:12:11;;;;;;;1.50;1.00;;;;;;;;;;5054642;28;20458;-62
2022/05/25 12:14:44;;;;;;;1.10;1.00;;;;;;;;;;5054546;28;20895;-62
2022/05/25 12:17:16;;;;;;;6.60;2.07;;;;;;;;;;5053989;28;20453;-61
2022/05/25 12:19:43;;;;;;;2.77;1.17;;;;;;;;;;5054523;28;20543;-61
2022/05/25 12:22:13;;;;;;;2.53;2.33;;;;;;;;;;5054268;28;20536;-62
2022/05/25 12:24:41;;;;;;;2.03;1.90;;;;;;;;;;5054166;28;21009;-61
2022/05/25 12:27:11;;;;;;;4.30;1.20;;;;;;;;;;5054196;28;20892;-62
2022/05/25 12:29:40;;;;;;;1.00;1.00;;;;;;;;;;5054634;28;20452;-61
2022/05/25 12:32:08;;;;;;;1.47;1.23;;;;;;;;;;5054232;28;20879;-62
2022/05/25 12:34:37;;;;;;;2.03;1.30;;;;;;;;;;5054448;28;20483;-62
2022/05/25 12:37:05;;;;;;;1.87;1.33;;;;;;;;;;5054363;28;20450;-62
2022/05/25 12:39:53;;;;;;;3.03;2.03;;;;;;;;;;5053855;28;20452;-62
2022/05/25 12:42:36;;;;;;;1.20;1.10;;;;;;;;;;5053979;28;20535;-62
2022/05/25 12:50:42;;;;;;;4.00;1.40;;;;;;;;;;5054323;28;20816;-62
2022/05/25 12:53:21;;;;;;;1.50;1.00;;;;;;;;;;5053773;28;20535;-62
2022/05/25 12:55:54;;;;;;;1.03;0.93;;;;;;;;;;5053678;28;20454;-62
2022/05/25 12:58:33;;;;;;;2.50;1.23;;;;;;;;;;5053437;28;20484;-62
2022/05/25 13:01:06;;;;;;;1.20;1.10;;;;;;;;;;5053802;28;20452;-62
2022/05/25 13:03:39;;;;;;;1.20;1.10;;;;;;;;;;5053462;28;20504;-62
2022/05/25 13:06:07;;;;;;;1.50;0.93;;;;;;;;;;5053514;28;20843;-62
2022/05/25 13:09:10;;;;;;;1.40;0.80;;;;;;;;;;5053528;28;20448;-62
2022/05/25 13:11:39;;;;;;;1.00;0.90;;;;;;;;;;5053576;28;20459;-62
2022/05/25 13:14:08;;;;;;;1.60;0.93;;;;;;;;;;5053397;28;20624;-62
2022/05/25 13:16:52;;;;;;;1.73;1.00;;;;;;;;;;5053422;28;20940;-62
2022/05/25 13:19:20;;;;;;;1.37;1.27;;;;;;;;;;5053175;28;20514;-62
2022/05/25 13:22:09;;;;;;;1.47;1.13;;;;;;;;;;5053381;28;20448;-62
2022/05/25 13:24:38;;;;;;;1.10;1.00;;;;;;;;;;5053127;28;20816;-62
2022/05/25 13:27:17;;;;;;;1.30;1.20;;;;;;;;;;5052974;28;20479;-62
2022/05/25 13:29:54;;;;;;;1.00;0.90;;;;;;;;;;5052388;28;20474;-62
2022/05/25 13:32:33;;;;;;;1.23;1.07;;;;;;;;;;5053183;28;20452;-62
2022/05/25 13:35:02;;;;;;;1.00;0.90;;;;;;;;;;5053026;28;20894;-62
2022/05/25 13:37:30;;;;;;;1.20;1.10;;;;;;;;;;5052952;28;20495;-62
2022/05/25 13:39:58;;;;;;;1.40;1.20;;;;;;;;;;5053067;28;20458;-62
2022/05/25 13:42:25;;;;;;;4.00;1.10;;;;;;;;;;5052705;28;20514;-62
2022/05/25 13:44:57;;;;;;;2.17;0.97;;;;;;;;;;5053063;28;20494;-62
2022/05/25 13:47:25;;;;;;;1.80;1.33;;;;;;;;;;5052875;28;20935;-62
2022/05/25 13:49:52;;;;;;;2.17;1.00;;;;;;;;;;5052937;28;20877;-62
2022/05/25 13:52:21;;;;;;;1.97;1.00;;;;;;;;;;5052791;28;20800;-62
2022/05/25 13:54:51;;;;;;;3.50;1.00;;;;;;;;;;5052557;28;20455;-62
2022/05/25 13:57:27;;;;;;;1.97;1.73;;;;;;;;;;5052998;28;20551;-62
2022/05/25 13:59:56;;;;;;;3.50;1.50;;;;;;;;;;5052919;28;20448;-62
2022/05/25 14:02:25;;;;;;;1.30;0.97;;;;;;;;;;5052755;28;20444;-62
2022/05/25 14:04:52;;;;;;;5.03;1.00;;;;;;;;;;5052939;28;20455;-62
2022/05/25 14:07:26;;;;;;;2.30;1.10;;;;;;;;;;5052639;28;20506;-62
2022/05/25 14:12:39;;;;;;;1.70;1.50;;;;;;;;;;5052762;28;20435;-62
2022/05/25 14:15:09;;;;;;;2.17;1.37;;;;;;;;;;5052704;28;20547;-62
2022/05/25 14:17:36;;;;;;;2.90;1.47;;;;;;;;;;5052486;28;20456;-62
2022/05/25 14:20:05;;;;;;;1.30;1.20;;;;;;;;;;5052813;28;20489;-62
2022/05/25 14:22:33;;;;;;;1.30;1.20;;;;;;;;;;5052752;28;20456;-62
2022/05/25 14:25:01;;;;;;;1.20;1.10;;;;;;;;;;5052722;28;20452;-62
2022/05/25 14:27:29;;;;;;;1.30;1.20;;;;;;;;;;5052480;28;20966;-62
2022/05/25 14:29:57;;;;;;;1.70;1.13;;;;;;;;;;5052695;28;20523;-62
2022/05/25 14:32:26;;;;;;;2.60;0.90;;;;;;;;;;5052237;28;20455;-62
2022/05/25 14:34:55;;;;;;;1.33;0.90;;;;;;;;;;5052457;28;20868;-62
2022/05/25 14:37:22;;;;;;;2.03;1.53;;;;;;;;;;5052680;28;20449;-62
2022/05/25 14:39:52;;;;;;;4.07;0.87;;;;;;;;;;5053697;28;20490;-62
2022/05/25 14:42:21;;;;;;;3.37;0.87;;;;;;;;;;5056377;28;20531;-62
2022/05/25 14:44:50;;;;;;;0.90;0.80;;;;;;;;;;5055825;28;20986;-62
2022/05/25 14:47:35;;;;;;;0.80;0.80;;;;;;;;;;5056385;28;20448;-62
2022/05/25 14:50:14;;;;;;;2.03;1.10;;;;;;;;;;5056253;28;20452;-62
2022/05/25 14:52:46;;;;;;;0.70;0.60;;;;;;;;;;5056171;28;20799;-62
2022/05/25 14:55:18;;;;;;;4.00;1.00;;;;;;;;;;5056029;28;20530;-62
2022/05/25 14:57:45;;;;;;;1.57;0.80;;;;;;;;;;5056244;28;20543;-62
2022/05/25 15:00:13;;;;;;;1.70;1.00;;;;;;;;;;5056110;28;20480;-62
2022/05/25 15:02:41;;;;;;;1.00;0.77;;;;;;;;;;5056239;28;20539;-63
2022/05/25 15:05:22;;;;;;;3.10;0.90;;;;;;;;;;5055951;28;20551;-63
2022/05/25 15:07:51;;;;;;;3.13;1.00;;;;;;;;;;5055806;28;20440;-62
2022/05/25 15:10:18;;;;;;;0.90;0.70;;;;;;;;;;5055937;28;20444;-63
2022/05/25 15:12:45;;;;;;;3.23;0.90;;;;;;;;;;5055904;28;20472;-62
2022/05/25 15:20:51;;;;;;;1.10;1.00;;;;;;;;;;5042460;28;20460;-62
2022/05/25 15:23:21;;;;;;;3.27;0.80;;;;;;;;;;5055595;28;20531;-62
2022/05/25 15:25:49;;;;;;;1.17;0.77;;;;;;;;;;5055517;28;20558;-62
2022/05/25 15:28:29;;;;;;;0.87;0.80;;;;;;;;;;5055121;28;20452;-63
2022/05/25 15:30:57;;;;;;;0.80;0.80;;;;;;;;;;5055373;28;20448;-62
2022/05/25 15:33:25;;;;;;;1.27;0.70;;;;;;;;;;5055478;28;20455;-62
2022/05/25 15:35:59;;;;;;;0.80;0.80;;;;;;;;;;5055220;28;20448;-62
2022/05/25 15:38:28;;;;;;;3.00;0.83;;;;;;;;;;5055306;28;20583;-62
2022/05/25 15:40:55;;;;;;;2.30;1.23;;;;;;;;;;5055661;28;20539;-62
2022/05/25 15:43:22;;;;;;;1.87;1.03;;;;;;;;;;5055158;28;20475;-62